createdAt,value
2022-11-24T00:47:14.804Z,100495.69
2022-11-24T00:49:42.678Z,100488.44
2022-11-24T00:52:10.413Z,100496.84
2022-11-24T00:54:38.175Z,100502.91
2022-11-24T00:57:06.063Z,100498.50
2022-11-24T00:59:33.880Z,100495.69
2022-11-24T01:45:52.880Z,100516.00
2022-11-24T01:48:25.936Z,100522.78
2022-11-24T01:50:56.098Z,100531.19
2022-11-24T01:53:23.853Z,100522.78
2022-11-24T01:55:51.621Z,100516.38
2022-11-24T01:58:20.540Z,100525.59
2022-11-24T02:47:40.433Z,100537.13
2022-11-24T02:50:08.409Z,100539.13
2022-11-24T02:52:36.347Z,100536.31
2022-11-24T02:55:04.765Z,100533.97
2022-11-24T02:57:32.520Z,100553.09
2022-11-24T03:00:00.261Z,100546.72
2022-11-24T03:46:19.488Z,100566.66
2022-11-24T03:48:47.310Z,100565.84
2022-11-24T03:51:15.471Z,100566.66
2022-11-24T03:53:43.284Z,100563.06
2022-11-24T03:56:11.016Z,100563.88
2022-11-24T03:58:38.725Z,100563.88
2022-11-24T04:46:44.363Z,100624.53
2022-11-24T04:49:12.556Z,100626.13
2022-11-24T04:51:40.190Z,100628.94
2022-11-24T04:54:08.048Z,100638.16
2022-11-24T04:56:35.901Z,100638.97
2022-11-24T04:59:07.944Z,100642.94
2022-11-24T05:30:50.261Z,100662.50
2022-11-24T05:33:19.167Z,100668.09
2022-11-24T05:35:46.892Z,100674.53
2022-11-24T05:38:14.460Z,100679.31
2022-11-24T05:40:42.146Z,100674.88
2022-11-24T05:43:11.352Z,100677.53
2022-11-24T05:45:38.896Z,100677.53
2022-11-24T05:48:08.058Z,100678.72
2022-11-24T05:50:36.286Z,100681.50
2022-11-24T05:53:04.049Z,100675.91
2022-11-24T05:55:31.609Z,100678.72
2022-11-24T05:58:00.202Z,100675.91
2022-11-24T06:00:27.765Z,100685.50
2022-11-24T06:02:55.421Z,100688.88
2022-11-24T06:05:24.421Z,100689.34
2022-11-24T06:07:52.570Z,100692.94
2022-11-24T06:10:21.632Z,100703.31
2022-11-24T06:12:49.300Z,100704.94
2022-11-24T06:15:17.308Z,100711.72
2022-11-24T06:17:44.880Z,100716.13
2022-11-24T06:20:12.698Z,100708.91
2022-11-24T06:22:41.703Z,100714.53
2022-11-24T06:25:09.753Z,100716.13
2022-11-24T06:27:37.699Z,100716.13
2022-11-24T06:30:05.842Z,100719.75
2022-11-24T06:32:33.439Z,100716.13
2022-11-24T06:35:01.009Z,100722.53
2022-11-24T06:37:28.786Z,100719.75
2022-11-24T06:39:57.749Z,100722.53
2022-11-24T06:42:25.325Z,100731.75
2022-11-24T06:44:53.035Z,100727.31
2022-11-24T06:47:20.631Z,100727.31
2022-11-24T06:49:48.190Z,100734.53
2022-11-24T06:52:15.794Z,100740.13
2022-11-24T06:54:43.801Z,100740.13
2022-11-24T06:57:12.885Z,100742.50
2022-11-24T06:59:40.488Z,100736.53
2022-11-24T07:02:08.288Z,100748.53
2022-11-24T07:04:36.142Z,100749.72
2022-11-24T07:07:04.012Z,100749.72
2022-11-24T07:09:31.599Z,100742.50
2022-11-24T07:11:59.170Z,100750.53
2022-11-24T07:14:28.078Z,100760.91
2022-11-24T07:16:55.677Z,100754.50
2022-11-24T07:19:25.224Z,100759.28
2022-11-24T07:21:53.379Z,100763.69
2022-11-24T07:24:21.017Z,100777.69
2022-11-24T07:26:48.575Z,100778.50
2022-11-24T07:29:16.334Z,100783.28
2022-11-24T07:31:46.222Z,100788.88
2022-11-24T07:34:14.761Z,100781.66
2022-11-24T07:36:42.590Z,100788.06
2022-11-24T07:39:10.185Z,100787.25
2022-11-24T07:41:37.729Z,100787.25
2022-11-24T07:44:05.988Z,100787.25
2022-11-24T07:46:33.645Z,100787.25
2022-11-24T07:49:02.815Z,100787.25
2022-11-24T07:51:30.701Z,100791.69
2022-11-24T07:53:58.566Z,100784.47
2022-11-24T07:56:26.207Z,100785.28
2022-11-24T07:58:53.830Z,100788.88
2022-11-24T08:01:21.523Z,100792.84
2022-11-24T08:03:49.160Z,100798.47
2022-11-24T08:06:30.284Z,100801.25
2022-11-24T08:09:00.153Z,100813.25
2022-11-24T08:11:27.766Z,100798.47
2022-11-24T08:13:55.372Z,100797.28
2022-11-24T08:16:23.003Z,100805.66
2022-11-24T08:18:50.698Z,100800.06
2022-11-24T08:21:19.639Z,100798.47
2022-11-24T08:23:47.255Z,100818.03
2022-11-24T08:26:16.710Z,100816.84
2022-11-24T08:28:44.382Z,100820.84
2022-11-24T08:31:13.983Z,100825.25
2022-11-24T08:33:41.699Z,100832.03
2022-11-24T08:36:10.188Z,100833.66
2022-11-24T08:38:39.342Z,100839.25
2022-11-24T08:41:07.784Z,100832.84
2022-11-24T08:43:35.656Z,100828.06
2022-11-24T08:46:03.328Z,100826.44
2022-11-24T08:48:31.678Z,100829.22
2022-11-24T08:50:59.318Z,100826.44
2022-11-24T08:53:26.969Z,100827.16
2022-11-24T08:55:55.903Z,100832.03
2022-11-24T08:58:23.449Z,100823.16
2022-11-24T09:00:51.043Z,100831.66
2022-11-24T09:03:18.623Z,100833.66
2022-11-24T09:05:53.751Z,100832.03
2022-11-24T09:08:22.033Z,100840.88
2022-11-24T09:10:49.601Z,100840.41
2022-11-24T09:13:18.597Z,100848.81
2022-11-24T09:15:46.235Z,100855.22
2022-11-24T09:18:14.465Z,100849.63
2022-11-24T09:20:42.043Z,100843.22
2022-11-24T09:23:09.618Z,100848.81
2022-11-24T09:25:37.472Z,100847.63
2022-11-24T09:28:05.138Z,100849.63
2022-11-24T09:30:34.113Z,100849.63
2022-11-24T09:33:01.940Z,100868.84
2022-11-24T09:35:29.662Z,100868.84
2022-11-24T09:37:57.193Z,100863.25
2022-11-24T09:40:24.793Z,100854.03
2022-11-24T09:42:54.916Z,100857.66
2022-11-24T09:45:48.872Z,100849.25
2022-11-24T09:48:15.796Z,100854.03
2022-11-24T09:50:43.411Z,100857.66
2022-11-24T09:53:12.298Z,100851.63
2022-11-24T09:55:40.952Z,100857.66
2022-11-24T09:58:38.831Z,100854.41
2022-11-24T10:01:06.725Z,100856.47
2022-11-24T10:03:36.504Z,100854.84
2022-11-24T10:06:04.995Z,100861.25
2022-11-24T10:08:36.169Z,100859.28
2022-11-24T10:11:04.195Z,100870.47
2022-11-24T10:13:46.067Z,100867.66
2022-11-24T10:16:15.576Z,100872.09
2022-11-24T10:18:46.655Z,100872.09
2022-11-24T10:21:19.093Z,100869.66
2022-11-24T10:23:50.874Z,100876.06
2022-11-24T10:26:19.494Z,100884.81
2022-11-24T10:28:49.170Z,100883.66
2022-11-24T10:31:24.117Z,100876.88
2022-11-24T10:33:53.416Z,100870.47
2022-11-24T10:36:21.901Z,100876.06
2022-11-24T10:38:51.922Z,100885.63
2022-11-24T10:41:20.486Z,100876.06
2022-11-24T10:43:48.045Z,100887.25
2022-11-24T10:46:16.035Z,100877.69
2022-11-24T10:48:44.584Z,100896.91
2022-11-24T10:51:30.406Z,100897.72
2022-11-24T10:53:59.864Z,100886.53
2022-11-24T10:56:27.510Z,100892.13
2022-11-24T10:58:55.420Z,100887.34
2022-11-24T11:01:27.606Z,100892.94
2022-11-24T11:03:56.096Z,100881.75
2022-11-24T11:06:24.547Z,100879.75
2022-11-24T11:08:55.741Z,100887.34
2022-11-24T11:11:23.759Z,100882.56
2022-11-24T11:14:00.072Z,100881.75
2022-11-24T11:16:33.634Z,100902.97
2022-11-24T11:19:15.665Z,100902.16
2022-11-24T11:21:50.802Z,100906.56
2022-11-24T11:24:19.868Z,100892.13
2022-11-24T11:26:47.437Z,100900.59
2022-11-24T11:34:53.033Z,100895.84
2022-11-24T11:37:20.942Z,100902.25
2022-11-24T11:39:50.276Z,100897.81
2022-11-24T11:42:45.300Z,100902.59
2022-11-24T11:45:07.642Z,100897.00
2022-11-24T11:47:37.310Z,100905.06
2022-11-24T11:50:05.100Z,100907.03
2022-11-24T11:52:47.609Z,100901.44
2022-11-24T11:55:49.885Z,100900.25
2022-11-24T11:58:29.361Z,100905.06
2022-11-24T12:00:59.435Z,100905.84
2022-11-24T12:03:31.006Z,100911.47
2022-11-24T12:06:00.492Z,100909.47
2022-11-24T12:08:49.549Z,100908.66
2022-11-24T12:11:19.883Z,100909.84
2022-11-24T12:13:51.650Z,100904.25
2022-11-24T12:16:25.212Z,100905.84
2022-11-24T12:18:57.591Z,100896.66
2022-11-24T12:21:27.127Z,100911.47
2022-11-24T12:23:58.897Z,100894.66
2022-11-24T12:26:28.265Z,100901.06
2022-11-24T12:28:59.712Z,100899.09
2022-11-24T12:31:28.740Z,100897.91
2022-11-24T12:34:01.771Z,100897.91
2022-11-24T12:36:33.922Z,100892.31
2022-11-24T12:39:02.892Z,100906.31
2022-11-24T12:41:41.650Z,100903.50
2022-11-24T12:44:14.071Z,100909.09
2022-11-24T12:46:43.619Z,100916.31
2022-11-24T12:49:13.660Z,100913.88
2022-11-24T12:51:41.655Z,100916.25
2022-11-24T12:54:11.366Z,100911.91
2022-11-24T12:56:39.404Z,100909.09
2022-11-24T12:59:13.373Z,100907.91
2022-11-24T13:01:41.820Z,100919.91
2022-11-24T13:04:12.129Z,100921.91
2022-11-24T13:06:48.795Z,100925.53
2022-11-24T13:09:17.130Z,100929.13
2022-11-24T13:11:45.003Z,100929.13
2022-11-24T13:14:15.819Z,100929.97
2022-11-24T13:17:13.521Z,100925.19
2022-11-24T13:19:38.149Z,100942.78
2022-11-24T13:22:11.742Z,100942.78
2022-11-24T13:24:39.639Z,100943.59
2022-11-24T13:27:27.066Z,100947.19
2022-11-24T13:29:56.013Z,100952.81
2022-11-24T13:32:50.744Z,100943.59
2022-11-24T13:35:18.533Z,100944.41
2022-11-24T13:37:46.671Z,100952.81
2022-11-24T13:40:29.855Z,100950.81
2022-11-24T13:43:16.258Z,100955.59
2022-11-24T13:45:51.362Z,100961.56
2022-11-24T13:48:37.507Z,100959.09
2022-11-24T13:51:16.019Z,100960.75
2022-11-24T13:53:43.764Z,100970.41
2022-11-24T13:56:22.424Z,100971.59
2022-11-24T13:58:50.357Z,100967.59
2022-11-24T14:01:20.607Z,100971.41
2022-11-24T14:04:21.623Z,100982.59
2022-11-24T14:06:39.048Z,100984.94
2022-11-24T14:09:08.741Z,100996.13
2022-11-24T14:11:36.286Z,100988.09
2022-11-24T14:14:16.078Z,100984.13
2022-11-24T14:16:48.193Z,100992.34
2022-11-24T14:19:18.864Z,100985.56
2022-11-24T14:21:48.119Z,100990.81
2022-11-24T14:24:19.606Z,100994.41
2022-11-24T14:26:47.341Z,100992.34
2022-11-24T14:29:15.426Z,100997.22
2022-11-24T14:31:43.588Z,100997.94
2022-11-24T14:34:16.469Z,101006.78
2022-11-24T14:36:44.097Z,101010.41
2022-11-24T14:39:12.653Z,101015.63
2022-11-24T14:41:40.211Z,101002.00
2022-11-24T14:44:08.278Z,101014.00
2022-11-24T14:46:35.999Z,101019.59
2022-11-24T14:49:03.564Z,101014.00
2022-11-24T14:51:35.972Z,101025.19
2022-11-24T14:54:04.396Z,101021.22
2022-11-24T14:56:33.321Z,101022.41
2022-11-24T14:59:00.942Z,101028.00
2022-11-24T15:01:32.999Z,101024.41
2022-11-24T15:04:54.521Z,101022.78
2022-11-24T15:07:07.405Z,101030.81
2022-11-24T15:09:35.889Z,101031.59
2022-11-24T15:12:05.883Z,101030.81
2022-11-24T15:14:48.518Z,101030.00
2022-11-24T15:17:17.147Z,101041.19
2022-11-24T15:19:45.122Z,101042.00
2022-11-24T15:22:27.854Z,101051.19
2022-11-24T15:24:56.886Z,101053.19
2022-11-24T15:27:24.443Z,101054.00
2022-11-24T15:29:51.994Z,101058.78
2022-11-24T15:32:19.780Z,101060.41
2022-11-24T15:34:47.341Z,101060.41
2022-11-24T15:37:14.924Z,101065.19
2022-11-24T15:39:42.470Z,101066.00
2022-11-24T15:42:12.052Z,101068.81
2022-11-24T15:44:39.617Z,101068.81
2022-11-24T15:47:07.303Z,101077.19
2022-11-24T15:49:35.148Z,101077.19
2022-11-24T15:52:02.748Z,101076.41
2022-11-24T15:54:30.542Z,101085.59
2022-11-24T15:56:58.267Z,101082.81
2022-11-24T15:59:27.292Z,101080.81
2022-11-24T16:01:54.934Z,101081.66
2022-11-24T16:04:22.549Z,101088.41
2022-11-24T16:06:50.274Z,101088.41
2022-11-24T16:09:18.175Z,101093.19
2022-11-24T16:11:45.762Z,101102.41
2022-11-24T16:14:13.618Z,101099.59
2022-11-24T16:16:42.749Z,101096.00
2022-11-24T16:19:10.793Z,101094.81
2022-11-24T16:21:38.393Z,101105.19
2022-11-24T16:24:06.345Z,101102.41
2022-11-24T16:26:34.170Z,101105.19
2022-11-24T16:29:01.764Z,101099.59
2022-11-24T16:31:30.390Z,101105.19
2022-11-24T16:33:59.819Z,101110.78
2022-11-24T16:36:28.619Z,101106.84
2022-11-24T16:38:56.259Z,101122.81
2022-11-24T16:41:23.939Z,101109.97
2022-11-24T16:43:52.952Z,101109.16
2022-11-24T16:46:21.109Z,101109.97
2022-11-24T16:48:49.593Z,101116.41
2022-11-24T16:51:18.655Z,101117.19
2022-11-24T16:53:46.226Z,101108.00
2022-11-24T16:56:14.734Z,101109.16
2022-11-24T16:58:42.703Z,101122.81
2022-11-24T17:01:11.500Z,101122.81
2022-11-24T17:03:39.237Z,101110.78
2022-11-24T17:06:07.430Z,101105.19
2022-11-24T17:08:36.873Z,101115.25
2022-11-24T17:11:07.478Z,101113.59
2022-11-24T17:13:35.127Z,101123.66
2022-11-24T17:16:04.351Z,101129.25
2022-11-24T17:18:32.254Z,101123.66
2022-11-24T17:21:03.205Z,101135.66
2022-11-24T17:23:33.715Z,101125.59
2022-11-24T17:26:06.137Z,101131.19
2022-11-24T17:28:33.763Z,101133.19
2022-11-24T17:31:06.340Z,101132.38
2022-11-24T17:33:33.917Z,101136.00
2022-11-24T17:36:02.365Z,101127.59
2022-11-24T17:38:30.930Z,101131.19
2022-11-24T17:40:58.573Z,101129.25
2022-11-24T17:43:28.234Z,101127.59
2022-11-24T17:45:55.983Z,101130.38
2022-11-24T17:48:23.695Z,101139.59
2022-11-24T17:50:59.274Z,101144.38
2022-11-24T17:53:26.874Z,101148.00
2022-11-24T17:55:54.456Z,101146.03
2022-11-24T17:58:22.039Z,101149.97
2022-11-24T18:00:51.690Z,101149.97
2022-11-24T18:03:19.303Z,101151.63
2022-11-24T18:05:46.914Z,101158.03
2022-11-24T18:08:14.524Z,101161.66
2022-11-24T18:10:42.197Z,101157.22
2022-11-24T18:13:22.181Z,101158.84
2022-11-24T18:16:01.254Z,101164.47
2022-11-24T18:18:28.820Z,101160.47
2022-11-24T18:20:56.814Z,101153.59
2022-11-24T18:23:24.414Z,101153.25
2022-11-24T18:25:55.017Z,101158.03
2022-11-24T18:28:22.936Z,101151.63
2022-11-24T18:30:50.664Z,101160.03
2022-11-24T18:33:19.653Z,101153.25
2022-11-24T18:35:56.100Z,101153.25
2022-11-24T18:38:23.667Z,101154.88
2022-11-24T18:40:53.071Z,101154.44
2022-11-24T18:43:20.833Z,101163.63
2022-11-24T18:45:48.417Z,101163.28
2022-11-24T18:48:16.199Z,101166.06
2022-11-24T18:50:45.367Z,101167.69
2022-11-24T18:53:13.235Z,101154.88
2022-11-24T18:55:41.394Z,101156.50
2022-11-24T18:58:08.954Z,101160.47
2022-11-24T19:00:36.803Z,101167.69
2022-11-24T19:03:04.817Z,101155.69
2022-11-24T19:05:32.365Z,101143.69
2022-11-24T19:08:01.462Z,101154.06
2022-11-24T19:10:29.142Z,101154.88
2022-11-24T19:12:56.699Z,101147.66
2022-11-24T19:15:24.301Z,101140.06
2022-11-24T19:17:52.144Z,101159.66
2022-11-24T19:20:19.743Z,101158.84
2022-11-24T19:22:47.308Z,101176.09
2022-11-24T19:25:16.761Z,101172.13
2022-11-24T19:27:44.409Z,101173.31
2022-11-24T19:30:13.261Z,101169.69
2022-11-24T19:32:40.844Z,101184.50
2022-11-24T19:35:08.989Z,101177.28
2022-11-24T19:37:37.307Z,101182.88
2022-11-24T19:40:05.182Z,101191.72
2022-11-24T19:42:34.149Z,101183.69
2022-11-24T19:45:01.848Z,101188.47
2022-11-24T19:47:29.470Z,101182.88
2022-11-24T19:49:57.026Z,101194.88
2022-11-24T19:52:24.585Z,101192.91
2022-11-24T19:54:52.527Z,101195.69
2022-11-24T19:57:20.107Z,101203.28
2022-11-24T19:59:49.061Z,101202.47
2022-11-24T20:02:17.110Z,101210.88
2022-11-24T20:04:45.634Z,101209.25
2022-11-24T20:07:14.635Z,101214.84
2022-11-24T20:09:42.226Z,101220.44
2022-11-24T20:12:09.923Z,101222.88
2022-11-24T20:14:37.755Z,101224.06
2022-11-24T20:17:06.847Z,101226.03
2022-11-24T20:19:34.482Z,101227.66
2022-11-24T20:22:02.072Z,101233.25
2022-11-24T20:24:30.060Z,101229.66
2022-11-24T20:26:58.249Z,101244.47
2022-11-24T20:29:25.925Z,101238.84
2022-11-24T20:31:54.173Z,101238.03
2022-11-24T20:34:23.210Z,101238.84
2022-11-24T20:36:53.041Z,101242.03
2022-11-24T20:39:21.038Z,101246.81
2022-11-24T20:41:49.421Z,101244.00
2022-11-24T20:44:17.576Z,101241.22
2022-11-24T20:46:46.107Z,101241.22
2022-11-24T20:49:14.106Z,101241.22
2022-11-24T20:51:44.142Z,101246.81
2022-11-24T20:54:12.985Z,101239.56
2022-11-24T20:56:41.745Z,101241.22
2022-11-24T20:59:09.842Z,101245.97
2022-11-24T21:01:38.521Z,101242.84
2022-11-24T21:04:06.642Z,101243.53
2022-11-24T21:06:34.229Z,101251.56
2022-11-24T21:09:04.203Z,101250.41
2022-11-24T21:11:32.311Z,101252.41
2022-11-24T21:14:00.185Z,101246.81
2022-11-24T21:16:28.524Z,101258.00
2022-11-24T21:18:56.529Z,101258.00
2022-11-24T21:21:24.435Z,101259.97
2022-11-24T21:23:52.004Z,101258.00
2022-11-24T21:26:20.966Z,101261.94
2022-11-24T21:28:48.573Z,101269.19
2022-11-24T21:31:16.729Z,101263.59
2022-11-24T21:33:45.860Z,101261.94
2022-11-24T21:36:14.554Z,101273.16
2022-11-24T21:38:42.476Z,101270.34
2022-11-24T21:41:10.603Z,101270.34
2022-11-24T21:43:39.775Z,101265.91
2022-11-24T21:46:07.877Z,101260.31
2022-11-24T21:48:36.085Z,101275.94
2022-11-24T21:51:04.572Z,101275.13
2022-11-24T21:53:32.741Z,101271.53
2022-11-24T21:56:00.587Z,101282.72
2022-11-24T21:58:28.542Z,101280.72
2022-11-24T22:00:57.696Z,101283.53
2022-11-24T22:03:25.541Z,101277.13
2022-11-24T22:05:56.022Z,101282.72
2022-11-24T22:08:23.911Z,101279.09
2022-11-24T22:10:52.400Z,101284.34
2022-11-24T22:13:20.001Z,101284.34
2022-11-24T22:15:47.576Z,101289.94
2022-11-24T22:18:16.619Z,101281.09
2022-11-24T22:20:44.258Z,101281.09
2022-11-24T22:23:11.826Z,101286.69
2022-11-24T22:25:39.349Z,101290.31
2022-11-24T22:28:06.881Z,101297.88
2022-11-24T22:30:34.458Z,101293.09
2022-11-24T22:33:02.019Z,101284.34
2022-11-24T22:35:31.014Z,101282.72
2022-11-24T22:37:58.991Z,101287.50
2022-11-24T22:40:26.563Z,101290.31
2022-11-24T22:42:54.689Z,101286.69
2022-11-24T22:45:22.293Z,101294.72
2022-11-24T22:47:49.906Z,101292.28
2022-11-24T22:50:17.492Z,101292.28
2022-11-24T22:52:46.659Z,101293.91
2022-11-24T22:55:14.372Z,101292.28
2022-11-24T22:57:46.015Z,101292.28
2022-11-24T23:00:16.249Z,101301.84
2022-11-24T23:02:43.881Z,101303.47
2022-11-24T23:05:11.464Z,101307.44
2022-11-24T23:07:39.146Z,101303.47
2022-11-24T23:10:08.885Z,101304.28
2022-11-24T23:12:36.450Z,101309.09
2022-11-24T23:15:04.039Z,101309.09
2022-11-24T23:46:45.677Z,101321.81
2022-11-24T23:49:13.232Z,101318.16
2022-11-24T23:51:42.016Z,101322.13
2022-11-24T23:54:10.083Z,101324.94
2022-11-24T23:56:37.702Z,101317.72
2022-11-24T23:59:05.427Z,101324.94
